Terminal Aerodrome Forecast
Issued by NWS

Home | Current Version | Previous Version | Text Only | Print | Product List | Glossary On
Versions: 1 2 3 4 5 6 7 8 9 10 11 12 13
507
FTPA31 PHFO 201728
TAFHOG
TAF
PHOG 201728Z 2018/2118 05010KT P6SM FEW030 SCT060
     FM201900 05014G22KT P6SM FEW030 SCT060
     FM202100 05018G28KT P6SM FEW030 SCT060
     FM210400 05012G20KT P6SM FEW030 SCT060
     FM210700 05010KT P6SM VCSH FEW030 SCT060=

USA.gov is the U.S. government's official web portal to all federal, state and local government web resources and services.